createdAt,value
2019-05-30T00:01:17.019Z,6.10
2019-05-30T00:03:44.745Z,6.20
2019-05-30T00:06:12.688Z,6.20
2019-05-30T00:08:40.331Z,6.10
2019-05-30T00:11:08.093Z,6.00
2019-05-30T00:13:35.798Z,5.90
2019-05-30T00:16:06.937Z,5.90
2019-05-30T00:18:34.660Z,6.00
2019-05-30T00:21:02.930Z,5.90
2019-05-30T00:23:30.967Z,6.00
2019-05-30T00:25:59.179Z,5.90
2019-05-30T00:28:27.055Z,5.80
2019-05-30T00:30:54.700Z,5.80
2019-05-30T00:33:22.342Z,5.70
2019-05-30T00:35:50.011Z,5.70
2019-05-30T00:38:17.662Z,5.70
2019-05-30T00:40:45.449Z,5.70
2019-05-30T00:43:13.102Z,5.80
2019-05-30T00:45:40.740Z,5.70
2019-05-30T00:48:08.612Z,5.70
2019-05-30T00:50:36.254Z,5.60
2019-05-30T00:53:05.368Z,5.60
2019-05-30T00:55:33.234Z,5.60
2019-05-30T00:58:01.155Z,5.50
2019-05-30T01:00:42.851Z,5.50
2019-05-30T01:02:59.916Z,5.50
2019-05-30T01:05:27.666Z,5.60
2019-05-30T01:07:56.656Z,5.60
2019-05-30T01:10:24.574Z,5.70
2019-05-30T01:12:52.304Z,5.80
2019-05-30T01:15:20.015Z,5.80
2019-05-30T01:17:47.766Z,5.90
2019-05-30T01:20:15.783Z,5.90
2019-05-30T01:22:43.480Z,5.90
2019-05-30T01:25:11.295Z,5.90
2019-05-30T01:27:39.245Z,5.90
2019-05-30T01:30:08.239Z,5.80
2019-05-30T01:32:35.955Z,5.80
2019-05-30T01:35:04.135Z,5.80
2019-05-30T01:37:31.908Z,5.80
2019-05-30T01:39:59.833Z,5.70
2019-05-30T01:42:27.623Z,5.60
2019-05-30T01:44:55.624Z,5.50
2019-05-30T01:47:23.367Z,5.40
2019-05-30T01:49:51.117Z,5.40
2019-05-30T01:52:18.824Z,5.50
2019-05-30T01:54:46.982Z,5.50
2019-05-30T01:57:14.699Z,5.60
2019-05-30T01:59:42.604Z,5.60
2019-05-30T02:02:10.268Z,5.70
2019-05-30T02:04:38.047Z,5.70
2019-05-30T02:07:05.762Z,5.80
2019-05-30T02:09:33.477Z,5.80
2019-05-30T02:12:01.274Z,5.60
2019-05-30T02:14:28.972Z,5.60
2019-05-30T02:16:56.679Z,5.50
2019-05-30T02:19:24.327Z,5.40
2019-05-30T02:21:51.973Z,5.20
2019-05-30T02:24:19.927Z,5.20
2019-05-30T02:26:47.863Z,5.00
2019-05-30T02:29:15.837Z,5.00
2019-05-30T02:31:43.611Z,5.00
2019-05-30T02:34:12.220Z,4.90
2019-05-30T02:36:40.130Z,4.80
2019-05-30T02:41:37.368Z,4.70
2019-05-30T02:44:05.669Z,4.70
2019-05-30T02:46:34.461Z,4.70
2019-05-30T02:49:04.366Z,4.60
2019-05-30T02:51:31.615Z,4.60
2019-05-30T02:53:59.329Z,4.60
2019-05-30T02:56:27.042Z,4.50
2019-05-30T02:58:54.677Z,4.50
2019-05-30T03:01:22.396Z,4.50
2019-05-30T03:03:50.444Z,4.60
2019-05-30T03:06:18.086Z,4.50
2019-05-30T03:08:45.813Z,4.50
2019-05-30T03:11:15.563Z,4.50
2019-05-30T03:13:43.072Z,4.50
2019-05-30T03:16:11.778Z,4.40
2019-05-30T03:18:40.256Z,4.40
2019-05-30T03:21:09.851Z,4.40
2019-05-30T03:23:37.448Z,4.40
2019-05-30T03:26:07.115Z,4.40
2019-05-30T03:28:34.641Z,4.30
2019-05-30T03:31:05.687Z,4.20
2019-05-30T03:33:40.959Z,4.20
2019-05-30T03:36:09.218Z,4.10
2019-05-30T03:38:31.815Z,4.20
2019-05-30T03:40:59.519Z,4.20
2019-05-30T03:43:27.360Z,4.20
2019-05-30T03:45:55.432Z,4.20
2019-05-30T03:48:23.239Z,4.10
2019-05-30T03:50:52.941Z,4.10
2019-05-30T03:53:21.058Z,4.20
2019-05-30T03:55:50.490Z,4.20
2019-05-30T03:58:36.390Z,4.30
2019-05-30T04:03:35.887Z,4.20
2019-05-30T04:06:07.037Z,4.30
2019-05-30T04:08:35.749Z,4.50
2019-05-30T04:11:04.934Z,4.40
2019-05-30T04:13:43.534Z,4.50
2019-05-30T04:16:13.322Z,4.50
2019-05-30T04:18:40.743Z,4.50
2019-05-30T04:21:09.031Z,4.60
2019-05-30T04:23:37.883Z,4.70
2019-05-30T04:26:07.272Z,4.90
2019-05-30T04:28:35.016Z,5.00
2019-05-30T04:31:02.935Z,4.90
2019-05-30T04:33:33.521Z,5.20
2019-05-30T04:36:00.076Z,5.40
2019-05-30T04:38:27.720Z,5.50
2019-05-30T04:40:55.363Z,5.70
2019-05-30T04:43:23.123Z,5.70
2019-05-30T04:45:50.768Z,5.80
2019-05-30T04:48:20.947Z,6.00
2019-05-30T04:50:48.150Z,6.20
2019-05-30T04:53:16.325Z,6.20
2019-05-30T04:55:44.467Z,6.40
2019-05-30T04:58:13.313Z,6.60
2019-05-30T05:00:41.795Z,6.70
2019-05-30T05:03:11.206Z,7.00
2019-05-30T05:05:39.104Z,7.10
2019-05-30T05:08:07.007Z,7.20
2019-05-30T05:10:34.730Z,7.60
2019-05-30T05:13:02.403Z,7.60
2019-05-30T05:15:30.060Z,7.80
2019-05-30T05:17:57.707Z,8.00
2019-05-30T05:20:25.637Z,8.10
2019-05-30T05:22:53.293Z,8.30
2019-05-30T05:25:21.476Z,8.40
2019-05-30T05:27:49.306Z,8.50
2019-05-30T05:30:17.986Z,8.70
2019-05-30T05:35:14.674Z,8.90
2019-05-30T05:37:42.620Z,9.00
2019-05-30T05:40:11.237Z,9.00
2019-05-30T05:42:38.890Z,9.20
2019-05-30T05:45:07.349Z,9.20
2019-05-30T05:47:34.993Z,9.40
2019-05-30T05:50:02.715Z,9.50
2019-05-30T05:52:30.552Z,9.80
2019-05-30T05:54:58.198Z,9.80
2019-05-30T05:57:25.843Z,10.00
2019-05-30T05:59:53.529Z,10.10
2019-05-30T06:02:21.184Z,10.00
2019-05-30T06:04:48.962Z,10.30
2019-05-30T06:07:16.598Z,10.40
2019-05-30T06:09:44.246Z,10.40
2019-05-30T06:12:12.057Z,10.50
2019-05-30T06:14:39.723Z,10.70
2019-05-30T06:17:07.447Z,10.80
2019-05-30T06:19:45.860Z,10.80
2019-05-30T06:22:04.665Z,11.00
2019-05-30T06:24:32.605Z,11.20
2019-05-30T06:27:00.260Z,11.20
2019-05-30T06:29:28.408Z,11.20
2019-05-30T06:31:56.104Z,11.40
2019-05-30T06:34:34.880Z,11.50
2019-05-30T06:36:53.158Z,11.60
2019-05-30T06:39:21.356Z,11.80
2019-05-30T06:41:49.087Z,11.90
2019-05-30T06:44:16.786Z,12.00
2019-05-30T06:46:44.574Z,12.10
2019-05-30T06:49:12.237Z,12.10
2019-05-30T06:51:39.920Z,12.20
2019-05-30T06:54:07.575Z,12.20
2019-05-30T06:56:35.220Z,12.20
2019-05-30T06:59:03.454Z,12.30
2019-05-30T07:01:32.158Z,12.40
2019-05-30T07:04:00.008Z,12.50
2019-05-30T07:06:29.492Z,12.70
2019-05-30T07:08:57.509Z,12.80
2019-05-30T07:11:25.405Z,12.80
2019-05-30T07:13:53.079Z,12.90
2019-05-30T07:16:21.087Z,13.10
2019-05-30T07:18:48.780Z,12.90
2019-05-30T07:21:17.245Z,13.20
2019-05-30T07:23:45.020Z,13.30
2019-05-30T07:26:13.716Z,13.40
2019-05-30T07:28:41.368Z,13.60
2019-05-30T07:31:09.325Z,13.80
2019-05-30T07:33:36.975Z,13.70
2019-05-30T07:36:05.240Z,13.90
2019-05-30T07:38:32.908Z,14.00
2019-05-30T07:41:00.564Z,14.00
2019-05-30T07:43:29.079Z,14.00
2019-05-30T07:45:58.586Z,14.00
2019-05-30T07:48:26.568Z,13.90
2019-05-30T07:50:54.486Z,13.90
2019-05-30T07:53:22.375Z,13.90
2019-05-30T07:55:50.159Z,14.00
2019-05-30T07:58:17.808Z,14.00
2019-05-30T08:00:45.479Z,14.10
2019-05-30T08:03:13.459Z,14.30
2019-05-30T08:05:41.494Z,14.30
2019-05-30T08:08:09.474Z,14.30
2019-05-30T08:10:38.152Z,14.40
2019-05-30T08:13:06.515Z,14.40
2019-05-30T08:15:36.361Z,14.50
2019-05-30T08:18:03.663Z,14.60
2019-05-30T08:20:31.707Z,14.60
2019-05-30T08:25:27.890Z,14.80
2019-05-30T08:27:55.704Z,14.90
2019-05-30T08:32:51.072Z,14.90
2019-05-30T08:35:18.803Z,15.00
2019-05-30T08:37:46.460Z,15.00
2019-05-30T08:40:14.427Z,15.20
2019-05-30T08:42:42.077Z,15.00
2019-05-30T08:45:10.273Z,15.00
2019-05-30T08:47:38.263Z,15.00
2019-05-30T08:50:06.382Z,15.00
2019-05-30T08:52:34.426Z,15.00
2019-05-30T08:55:02.155Z,15.00
2019-05-30T08:57:30.473Z,15.40
2019-05-30T08:59:58.262Z,15.30
2019-05-30T09:02:25.943Z,15.30
2019-05-30T09:04:53.587Z,15.20
2019-05-30T09:07:21.282Z,15.20
2019-05-30T09:09:49.197Z,15.40
2019-05-30T09:12:16.939Z,15.50
2019-05-30T09:14:45.333Z,15.60
2019-05-30T09:17:13.139Z,15.70
2019-05-30T09:19:41.504Z,15.80
2019-05-30T09:22:09.425Z,15.70
2019-05-30T09:24:38.476Z,15.80
2019-05-30T09:27:06.456Z,15.80
2019-05-30T09:29:34.305Z,16.10
2019-05-30T09:32:01.970Z,16.20
2019-05-30T09:34:29.695Z,16.30
2019-05-30T09:41:52.267Z,16.30
2019-05-30T09:44:20.046Z,16.40
2019-05-30T09:46:48.507Z,16.30
2019-05-30T09:49:16.487Z,16.30
2019-05-30T09:56:40.459Z,16.60
2019-05-30T09:59:08.256Z,16.30
2019-05-30T10:01:35.973Z,16.10
2019-05-30T10:04:03.825Z,15.90
2019-05-30T10:08:58.881Z,15.70
2019-05-30T10:11:26.613Z,15.90
2019-05-30T10:13:54.455Z,16.10
2019-05-30T10:16:22.144Z,16.20
2019-05-30T10:18:50.808Z,16.20
2019-05-30T10:21:18.486Z,16.40
2019-05-30T10:23:47.525Z,16.40
2019-05-30T10:26:15.871Z,16.50
2019-05-30T10:28:43.589Z,16.70
2019-05-30T10:33:39.025Z,17.00
2019-05-30T10:36:06.750Z,16.90
2019-05-30T10:38:34.532Z,16.90
2019-05-30T10:41:02.211Z,17.00
2019-05-30T10:43:29.925Z,17.00
2019-05-30T10:45:57.623Z,17.30
2019-05-30T10:48:25.286Z,17.30
2019-05-30T10:50:54.328Z,17.30
2019-05-30T10:53:22.154Z,17.30
2019-05-30T10:55:50.249Z,17.00
2019-05-30T10:58:17.939Z,17.00
2019-05-30T11:00:48.584Z,17.20
2019-05-30T11:03:17.789Z,17.30
2019-05-30T11:05:47.542Z,17.30
2019-05-30T11:08:17.834Z,17.40
2019-05-30T11:10:46.406Z,17.20
2019-05-30T11:13:15.594Z,17.20
2019-05-30T11:15:43.815Z,17.20
2019-05-30T11:18:11.843Z,17.20
2019-05-30T11:20:39.631Z,17.20
2019-05-30T11:23:07.343Z,17.40
2019-05-30T11:25:35.257Z,17.60
2019-05-30T11:28:03.230Z,17.80
2019-05-30T11:30:30.971Z,17.80
2019-05-30T11:32:59.448Z,18.20
2019-05-30T11:35:27.496Z,17.90
2019-05-30T11:37:55.272Z,17.50
2019-05-30T11:40:23.873Z,17.70
2019-05-30T11:42:51.571Z,17.70
2019-05-30T11:45:19.276Z,17.80
2019-05-30T11:47:46.919Z,17.90
2019-05-30T11:50:14.880Z,18.10
2019-05-30T11:52:42.705Z,18.20
2019-05-30T11:55:10.344Z,18.30
2019-05-30T11:57:38.127Z,18.30
2019-05-30T12:00:06.619Z,18.00
2019-05-30T12:02:34.263Z,18.00
2019-05-30T12:05:01.977Z,18.00
2019-05-30T12:07:36.259Z,18.20
2019-05-30T12:09:59.065Z,18.00
2019-05-30T12:12:26.847Z,18.10
2019-05-30T12:14:55.246Z,18.00
2019-05-30T12:17:23.059Z,18.10
2019-05-30T12:19:51.379Z,18.10
2019-05-30T12:22:19.204Z,18.10
2019-05-30T12:24:47.091Z,18.40
2019-05-30T12:27:14.750Z,18.50
2019-05-30T12:29:42.529Z,18.60
2019-05-30T12:32:10.242Z,18.60
2019-05-30T12:34:37.943Z,18.80
2019-05-30T12:37:05.659Z,18.90
2019-05-30T12:39:33.576Z,18.80
2019-05-30T12:42:01.417Z,18.90
2019-05-30T12:44:29.071Z,18.90
2019-05-30T12:46:57.097Z,18.80
2019-05-30T12:49:25.313Z,18.90
2019-05-30T12:51:54.069Z,19.00
2019-05-30T12:54:21.882Z,19.00
2019-05-30T12:56:49.668Z,19.10
2019-05-30T12:59:17.639Z,19.30
2019-05-30T13:01:45.304Z,19.20
2019-05-30T13:04:12.997Z,19.20
2019-05-30T13:06:40.909Z,19.50
2019-05-30T13:09:09.038Z,19.60
2019-05-30T13:11:37.847Z,19.70
2019-05-30T13:14:06.896Z,19.60
2019-05-30T13:19:04.280Z,19.70
2019-05-30T13:21:32.131Z,19.80
2019-05-30T13:26:27.352Z,19.50
2019-05-30T13:28:55.955Z,19.50
2019-05-30T13:31:23.856Z,19.60
2019-05-30T13:33:53.616Z,19.70
2019-05-30T13:36:21.407Z,19.90
2019-05-30T13:41:16.503Z,20.00
2019-05-30T13:43:44.376Z,20.00
2019-05-30T13:46:12.296Z,20.00
2019-05-30T13:48:40.043Z,20.10
2019-05-30T13:51:07.744Z,20.30
2019-05-30T13:53:35.393Z,20.30
2019-05-30T13:58:31.200Z,20.20
2019-05-30T14:00:59.855Z,20.30
2019-05-30T14:03:28.934Z,20.30
2019-05-30T14:05:56.592Z,20.40
2019-05-30T14:08:24.249Z,20.40
2019-05-30T14:10:51.997Z,20.40
2019-05-30T14:13:19.639Z,20.50
2019-05-30T14:15:47.416Z,20.70
2019-05-30T14:18:15.073Z,20.30
2019-05-30T14:20:42.738Z,20.30
2019-05-30T14:23:11.784Z,20.20
2019-05-30T14:28:07.834Z,20.30
2019-05-30T14:30:35.582Z,20.50
2019-05-30T14:33:04.089Z,20.50
2019-05-30T14:35:32.059Z,21.10
2019-05-30T14:37:59.710Z,21.90
2019-05-30T14:42:54.891Z,24.40
2019-05-30T14:45:22.607Z,25.70
2019-05-30T14:47:50.272Z,26.00
2019-05-30T14:50:18.144Z,27.00
2019-05-30T14:52:45.956Z,27.80
2019-05-30T14:55:14.478Z,28.30
2019-05-30T14:57:42.248Z,28.40
2019-05-30T15:00:13.449Z,28.90
2019-05-30T15:02:41.663Z,26.70
2019-05-30T15:05:09.543Z,27.40
2019-05-30T15:07:37.216Z,27.40
2019-05-30T15:10:06.591Z,27.40
2019-05-30T15:15:02.462Z,27.60
2019-05-30T15:17:30.386Z,27.70
2019-05-30T15:19:58.109Z,28.10
2019-05-30T15:22:25.899Z,26.00
2019-05-30T15:24:53.556Z,26.40
2019-05-30T15:27:21.231Z,26.50
2019-05-30T15:29:48.917Z,27.30
2019-05-30T15:32:16.657Z,27.00
2019-05-30T15:34:44.616Z,27.50
2019-05-30T15:37:12.796Z,27.80
2019-05-30T15:39:41.567Z,27.50
2019-05-30T15:42:09.216Z,27.60
2019-05-30T15:44:36.861Z,27.30
2019-05-30T15:47:04.990Z,27.60
2019-05-30T15:49:32.650Z,28.40
2019-05-30T15:52:00.319Z,28.00
2019-05-30T15:54:28.095Z,27.90
2019-05-30T15:56:55.829Z,27.60
2019-05-30T15:59:23.508Z,27.20
2019-05-30T16:01:51.549Z,27.20
2019-05-30T16:04:20.467Z,28.40
2019-05-30T16:06:48.343Z,29.40
2019-05-30T16:09:16.781Z,29.40
2019-05-30T16:11:44.521Z,28.30
2019-05-30T16:14:13.214Z,28.30
2019-05-30T16:16:41.481Z,28.50
2019-05-30T16:19:17.403Z,27.30
2019-05-30T16:21:38.743Z,27.70
2019-05-30T16:24:06.499Z,27.70
2019-05-30T16:26:34.221Z,28.20
2019-05-30T16:29:01.909Z,28.80
2019-05-30T16:31:29.586Z,30.30
2019-05-30T16:33:57.247Z,30.30
2019-05-30T16:36:26.393Z,30.00
2019-05-30T16:38:54.084Z,29.70
2019-05-30T16:41:22.580Z,29.50
2019-05-30T16:43:50.403Z,29.50
2019-05-30T16:46:18.367Z,28.60
2019-05-30T16:48:46.091Z,28.60
2019-05-30T16:51:14.730Z,29.00
2019-05-30T16:53:42.565Z,29.00
2019-05-30T16:56:10.368Z,28.70
2019-05-30T16:58:38.025Z,28.40
2019-05-30T17:01:05.903Z,28.40
2019-05-30T17:03:33.568Z,28.50
2019-05-30T17:06:01.230Z,28.10
2019-05-30T17:08:29.022Z,27.80
2019-05-30T17:10:56.697Z,27.50
2019-05-30T17:13:24.359Z,27.50
2019-05-30T17:15:52.179Z,27.70
2019-05-30T17:18:20.291Z,28.10
2019-05-30T17:20:48.626Z,27.80
2019-05-30T17:23:16.752Z,27.80
2019-05-30T17:25:44.614Z,27.10
2019-05-30T17:28:14.884Z,26.60
2019-05-30T17:30:42.132Z,25.70
2019-05-30T17:33:09.774Z,25.10
2019-05-30T17:35:37.498Z,24.50
2019-05-30T17:38:05.176Z,23.80
2019-05-30T17:40:43.595Z,23.20
2019-05-30T17:43:02.337Z,23.20
2019-05-30T17:45:30.055Z,22.90
2019-05-30T17:48:02.914Z,22.10
2019-05-30T17:50:27.864Z,21.60
2019-05-30T17:52:55.609Z,21.30
2019-05-30T17:55:23.894Z,21.10
2019-05-30T17:57:51.728Z,20.90
2019-05-30T18:00:20.377Z,20.50
2019-05-30T18:02:48.388Z,20.10
2019-05-30T18:05:16.111Z,19.80
2019-05-30T18:07:43.772Z,19.40
2019-05-30T18:10:12.489Z,19.40
2019-05-30T18:12:40.141Z,18.90
2019-05-30T18:15:11.494Z,18.70
2019-05-30T18:17:39.195Z,18.60
2019-05-30T18:20:08.319Z,18.40
2019-05-30T18:22:36.271Z,18.30
2019-05-30T18:25:05.794Z,18.00
2019-05-30T18:30:00.816Z,18.10
2019-05-30T18:32:28.752Z,17.40
2019-05-30T18:34:57.484Z,17.10
2019-05-30T18:57:06.460Z,15.80
2019-05-30T18:59:34.159Z,15.60
2019-05-30T19:16:47.793Z,14.10
2019-05-30T19:19:15.753Z,14.00
2019-05-30T19:21:43.431Z,13.80
2019-05-30T19:24:11.171Z,13.70
2019-05-30T19:26:39.015Z,13.70
2019-05-30T19:29:06.973Z,13.70
2019-05-30T19:31:34.859Z,13.50
2019-05-30T19:34:02.629Z,13.30
2019-05-30T19:36:31.020Z,13.20
2019-05-30T19:38:59.115Z,13.20
2019-05-30T19:41:27.445Z,12.80
2019-05-30T19:43:56.262Z,12.70
2019-05-30T19:46:23.933Z,12.70
2019-05-30T19:48:51.787Z,12.70
2019-05-30T19:51:21.044Z,12.60
2019-05-30T19:53:48.913Z,12.50
2019-05-30T19:56:16.716Z,12.20
2019-05-30T19:58:44.375Z,12.10
2019-05-30T20:01:12.054Z,12.00
2019-05-30T20:03:45.190Z,11.80
2019-05-30T20:06:09.197Z,11.70
2019-05-30T20:08:52.493Z,11.50
2019-05-30T20:13:35.024Z,11.40
2019-05-30T20:20:58.261Z,11.40
2019-05-30T20:23:26.003Z,11.40
2019-05-30T20:25:53.769Z,11.30
2019-05-30T20:30:48.862Z,10.90
2019-05-30T20:33:16.708Z,10.80
2019-05-30T20:38:11.892Z,10.60
2019-05-30T20:40:40.842Z,10.60
2019-05-30T20:43:08.961Z,10.60
2019-05-30T20:45:39.546Z,10.60
2019-05-30T20:48:06.131Z,10.50
2019-05-30T20:50:34.935Z,10.50
2019-05-30T20:53:02.787Z,10.50
2019-05-30T20:55:30.424Z,10.50
2019-05-30T20:57:58.174Z,10.50
2019-05-30T21:00:39.853Z,10.50
2019-05-30T21:03:08.160Z,10.50
2019-05-30T21:05:36.287Z,10.50
2019-05-30T21:08:05.918Z,10.60
2019-05-30T21:10:34.926Z,10.30
2019-05-30T21:13:04.015Z,10.40
2019-05-30T21:15:32.035Z,10.40
2019-05-30T21:17:59.759Z,10.10
2019-05-30T21:20:27.547Z,10.00
2019-05-30T21:22:55.527Z,10.00
2019-05-30T21:25:23.307Z,9.80
2019-05-30T21:27:51.182Z,9.60
2019-05-30T21:30:20.297Z,9.60
2019-05-30T21:32:48.513Z,9.50
2019-05-30T21:35:16.654Z,9.40
2019-05-30T21:37:44.419Z,9.40
2019-05-30T21:40:12.139Z,9.30
2019-05-30T21:42:55.667Z,9.30
2019-05-30T21:45:09.375Z,9.30
2019-05-30T21:47:37.494Z,9.30
2019-05-30T21:50:06.837Z,9.30
2019-05-30T21:52:34.779Z,9.20
2019-05-30T21:55:03.607Z,9.10
2019-05-30T21:57:31.530Z,9.00
2019-05-30T21:59:59.212Z,8.80
2019-05-30T22:02:26.946Z,8.80
2019-05-30T22:04:54.754Z,8.70
2019-05-30T22:07:22.676Z,8.70
2019-05-30T22:09:51.448Z,8.70
2019-05-30T22:12:19.561Z,8.60
2019-05-30T22:14:47.811Z,8.60
2019-05-30T22:17:15.607Z,8.60
2019-05-30T22:19:43.810Z,8.50
2019-05-30T22:22:11.499Z,8.40
2019-05-30T22:24:39.163Z,8.40
2019-05-30T22:27:06.838Z,8.40
2019-05-30T22:29:34.534Z,8.40
2019-05-30T22:32:03.166Z,8.40
2019-05-30T22:34:31.127Z,8.40
2019-05-30T22:36:58.782Z,8.30
2019-05-30T22:39:26.427Z,8.30
2019-05-30T22:41:54.127Z,8.40
2019-05-30T22:44:21.770Z,8.40
2019-05-30T22:46:50.221Z,8.30
2019-05-30T22:49:18.146Z,8.30
2019-05-30T22:51:46.921Z,8.40
2019-05-30T22:54:14.735Z,8.40
2019-05-30T22:56:42.491Z,8.40
2019-05-30T22:59:10.281Z,8.40
2019-05-30T23:01:38.075Z,8.40
2019-05-30T23:04:05.791Z,8.30
2019-05-30T23:06:33.445Z,8.40
2019-05-30T23:09:01.397Z,8.30
2019-05-30T23:11:29.091Z,8.30
2019-05-30T23:13:56.735Z,8.30
2019-05-30T23:16:24.374Z,8.30
2019-05-30T23:18:52.603Z,8.20
2019-05-30T23:21:20.384Z,8.10
2019-05-30T23:23:48.899Z,8.00
2019-05-30T23:26:16.697Z,8.00
2019-05-30T23:28:44.339Z,8.00
2019-05-30T23:31:11.995Z,8.00
2019-05-30T23:33:39.699Z,7.90
2019-05-30T23:36:07.350Z,7.90
2019-05-30T23:38:35.073Z,7.90
2019-05-30T23:41:02.848Z,7.80
2019-05-30T23:43:30.500Z,7.90
2019-05-30T23:45:58.146Z,7.80
2019-05-30T23:48:25.920Z,7.80
2019-05-30T23:50:53.868Z,7.70
2019-05-30T23:53:21.822Z,7.80
2019-05-30T23:55:50.202Z,7.90
2019-05-30T23:58:18.038Z,8.20
